Time;durP1;ratioP1;P1;durP2;ratioP2;P2;SDS_P1;SDS_P2;PMS_P1;PMS_P2;Temp;Humidity;BMP_temperature;BMP_pressure;BME280_temperature;BME280_humidity;BME280_pressure;Samples;Min_cycle;Max_cycle;Signal;HPM_P1;HPM_P2
2021/11/16 00:02:03;;;;;;;21.67;14.07;;;5.90;99.90;;;;;;4987425;28;20625;-74
2021/11/16 00:04:29;;;;;;;26.77;13.77;;;5.90;99.90;;;;;;4999431;28;20451;-73
2021/11/16 00:06:54;;;;;;;19.93;14.80;;;6.00;99.90;;;;;;4984358;28;20434;-72
2021/11/16 00:09:21;;;;;;;24.03;14.70;;;6.00;99.90;;;;;;4982929;28;20175;-72
2021/11/16 00:11:47;;;;;;;25.23;14.80;;;5.90;99.90;;;;;;4983357;28;20172;-72
2021/11/16 00:14:15;;;;;;;26.60;14.57;;;5.90;99.90;;;;;;4983055;28;20435;-71
2021/11/16 00:16:41;;;;;;;21.87;14.73;;;5.90;99.90;;;;;;4984896;28;20454;-71
2021/11/16 00:19:11;;;;;;;21.37;13.87;;;5.90;99.90;;;;;;4983408;28;20505;-71
2021/11/16 00:21:40;;;;;;;27.43;14.10;;;5.80;99.90;;;;;;4983769;28;20529;-72
2021/11/16 00:24:13;;;;;;;23.27;14.47;;;5.80;99.90;;;;;;4982404;28;20816;-71
2021/11/16 00:26:39;;;;;;;23.77;15.60;;;5.80;99.90;;;;;;4998755;28;20429;-71
2021/11/16 00:29:05;;;;;;;27.70;15.93;;;5.80;99.90;;;;;;4982472;28;20488;-71
2021/11/16 00:31:32;;;;;;;25.70;15.47;;;5.80;99.90;;;;;;4981447;28;20772;-71
2021/11/16 00:34:00;;;;;;;24.93;14.80;;;5.80;99.90;;;;;;4983309;28;20449;-71
2021/11/16 00:36:27;;;;;;;24.97;14.37;;;5.70;99.90;;;;;;4982921;28;20470;-71
2021/11/16 00:38:52;;;;;;;23.47;14.00;;;5.70;99.90;;;;;;4982032;28;20449;-71
2021/11/16 00:41:18;;;;;;;22.00;14.00;;;5.70;99.90;;;;;;4981228;28;20521;-71
2021/11/16 00:43:44;;;;;;;24.93;15.20;;;5.80;99.90;;;;;;4982930;28;20180;-72
2021/11/16 00:46:10;;;;;;;25.00;14.00;;;5.80;99.90;;;;;;4980741;28;20183;-71
2021/11/16 00:48:38;;;;;;;21.10;14.30;;;5.70;99.90;;;;;;4981964;28;20434;-72
2021/11/16 00:51:05;;;;;;;27.83;14.70;;;5.70;99.90;;;;;;4983204;28;20430;-72
2021/11/16 00:53:34;;;;;;;28.33;15.43;;;5.70;99.90;;;;;;4983121;28;20453;-72
2021/11/16 00:56:02;;;;;;;22.90;13.47;;;5.70;99.90;;;;;;4984135;28;20461;-72
2021/11/16 00:58:28;;;;;;;20.20;13.37;;;5.70;99.90;;;;;;4983409;28;20434;-72
2021/11/16 01:00:54;;;;;;;22.40;14.10;;;5.70;99.90;;;;;;4981941;28;20465;-72
2021/11/16 01:03:20;;;;;;;23.27;13.40;;;5.80;99.90;;;;;;4986687;28;20424;-72
2021/11/16 01:05:46;;;;;;;23.73;13.87;;;5.80;99.90;;;;;;4988515;28;20438;-72
2021/11/16 01:08:12;;;;;;;24.23;14.53;;;5.70;99.90;;;;;;4987642;28;20762;-72
2021/11/16 01:10:40;;;;;;;21.80;15.40;;;5.70;99.90;;;;;;4985602;28;20203;-72
2021/11/16 01:13:07;;;;;;;26.60;13.57;;;5.70;99.90;;;;;;4986293;28;20270;-72
2021/11/16 01:15:37;;;;;;;21.30;13.80;;;5.70;99.90;;;;;;4987342;28;20456;-72
2021/11/16 01:18:04;;;;;;;26.33;14.33;;;5.70;99.90;;;;;;4987430;28;20786;-74
2021/11/16 01:20:30;;;;;;;24.27;14.73;;;5.70;99.90;;;;;;4984700;28;20426;-72
2021/11/16 01:22:58;;;;;;;22.57;14.17;;;5.70;99.90;;;;;;4985657;28;20973;-73
2021/11/16 01:25:26;;;;;;;22.73;13.97;;;5.70;99.90;;;;;;5004229;28;20442;-72
2021/11/16 01:27:56;;;;;;;21.60;13.57;;;5.70;99.90;;;;;;4988148;28;20426;-73
2021/11/16 01:30:26;;;;;;;24.40;15.07;;;5.70;99.90;;;;;;4986683;28;20507;-73
2021/11/16 01:33:03;;;;;;;26.20;15.17;;;5.70;99.90;;;;;;4988602;28;20445;-73
2021/11/16 01:35:29;;;;;;;22.87;13.87;;;5.80;99.90;;;;;;4988229;28;20462;-73
2021/11/16 01:37:55;;;;;;;24.80;14.00;;;5.80;99.90;;;;;;4985690;28;20474;-73
2021/11/16 01:40:21;;;;;;;24.43;14.50;;;5.70;99.90;;;;;;4983973;28;20524;-72
2021/11/16 01:42:50;;;;;;;27.37;15.87;;;5.80;99.90;;;;;;4987307;28;20173;-73
2021/11/16 01:45:16;;;;;;;21.93;14.73;;;5.80;99.90;;;;;;4985219;28;20463;-73
2021/11/16 01:47:43;;;;;;;23.77;14.17;;;5.80;99.90;;;;;;4987241;28;20473;-73
2021/11/16 01:50:11;;;;;;;22.67;14.37;;;5.70;99.90;;;;;;4986433;28;20438;-73
2021/11/16 01:52:37;;;;;;;21.70;14.43;;;5.70;99.90;;;;;;4987307;28;20758;-73
2021/11/16 01:55:06;;;;;;;24.60;13.30;;;5.70;99.90;;;;;;4987557;28;20469;-73
2021/11/16 01:57:32;;;;;;;24.73;14.20;;;5.70;99.90;;;;;;4988879;28;20277;-73
2021/11/16 01:59:58;;;;;;;25.50;14.40;;;5.70;99.90;;;;;;4985805;28;20442;-73
2021/11/16 02:02:24;;;;;;;25.17;15.60;;;5.70;99.90;;;;;;4987055;28;20922;-73
2021/11/16 02:04:49;;;;;;;20.97;13.53;;;5.70;99.90;;;;;;5004818;28;20179;-73
2021/11/16 02:07:15;;;;;;;21.50;13.47;;;5.60;99.90;;;;;;4988185;28;20218;-73
2021/11/16 02:09:42;;;;;;;23.20;13.97;;;5.60;99.90;;;;;;4986639;28;20183;-73
2021/11/16 02:12:08;;;;;;;21.97;14.80;;;5.60;99.90;;;;;;4986213;28;20190;-73
2021/11/16 02:14:35;;;;;;;22.40;14.17;;;5.50;99.90;;;;;;4985186;28;20433;-72
2021/11/16 02:17:01;;;;;;;22.90;14.67;;;5.60;99.90;;;;;;4987192;28;20442;-72
2021/11/16 02:19:27;;;;;;;21.43;13.40;;;5.60;99.90;;;;;;4985804;28;20430;-73
2021/11/16 02:21:53;;;;;;;25.60;15.23;;;5.70;99.90;;;;;;4987367;28;20803;-73
2021/11/16 02:24:19;;;;;;;24.80;14.90;;;5.70;99.90;;;;;;4985691;28;20242;-72
2021/11/16 02:26:45;;;;;;;22.67;14.67;;;5.70;99.90;;;;;;4986095;28;20493;-72
2021/11/16 02:29:12;;;;;;;25.87;14.60;;;5.60;99.90;;;;;;4984594;28;20542;-72
2021/11/16 02:31:38;;;;;;;24.87;14.60;;;5.70;99.90;;;;;;4985470;28;20522;-72
2021/11/16 02:34:06;;;;;;;24.73;13.77;;;5.70;99.90;;;;;;4987771;28;20451;-73
2021/11/16 02:36:33;;;;;;;26.57;15.70;;;5.60;99.90;;;;;;4986197;28;20493;-73
2021/11/16 02:39:01;;;;;;;24.20;15.00;;;5.60;99.90;;;;;;4983876;28;20434;-72
2021/11/16 02:41:31;;;;;;;25.30;14.90;;;5.70;99.90;;;;;;4985455;28;20438;-73
2021/11/16 02:43:59;;;;;;;24.67;14.40;;;5.60;99.90;;;;;;4985118;28;20431;-73
2021/11/16 02:46:26;;;;;;;23.00;14.77;;;5.60;99.90;;;;;;4985782;28;20779;-72
2021/11/16 02:48:52;;;;;;;23.33;14.83;;;5.60;99.90;;;;;;4985963;28;20525;-73
2021/11/16 02:51:18;;;;;;;24.57;14.13;;;5.60;99.90;;;;;;4986092;28;20489;-72
2021/11/16 02:53:44;;;;;;;22.60;13.10;;;5.60;99.90;;;;;;4985351;28;20442;-72
2021/11/16 02:56:10;;;;;;;27.20;15.37;;;5.60;99.90;;;;;;4986283;28;20215;-72
2021/11/16 02:58:35;;;;;;;24.67;13.60;;;5.50;99.90;;;;;;4984785;28;20176;-73
2021/11/16 03:01:12;;;;;;;21.87;13.83;;;5.60;99.90;;;;;;4984250;28;20473;-73
2021/11/16 03:03:40;;;;;;;28.00;14.40;;;5.60;99.90;;;;;;4985227;28;20190;-73
2021/11/16 03:06:06;;;;;;;24.90;13.70;;;5.60;99.90;;;;;;4986141;28;20466;-73
2021/11/16 03:08:32;;;;;;;23.43;15.23;;;5.60;99.90;;;;;;4983963;28;20446;-72
2021/11/16 03:11:00;;;;;;;26.77;15.10;;;5.60;99.90;;;;;;4983338;28;20527;-72
2021/11/16 03:13:29;;;;;;;24.60;13.80;;;5.60;99.90;;;;;;4984730;28;20183;-73
2021/11/16 03:15:55;;;;;;;21.10;13.27;;;5.60;99.90;;;;;;4985734;28;20466;-73
2021/11/16 03:18:21;;;;;;;21.00;13.40;;;5.60;99.90;;;;;;4984734;28;20504;-73
2021/11/16 03:20:48;;;;;;;21.13;12.87;;;5.60;99.90;;;;;;4983367;28;20872;-73
2021/11/16 03:25:47;;;;;;;27.30;14.17;;;5.60;99.90;;;;;;4986105;28;24249;-72
2021/11/16 03:28:13;;;;;;;21.70;13.97;;;5.70;99.90;;;;;;4981821;28;20426;-73
2021/11/16 03:30:42;;;;;;;20.87;13.20;;;5.70;99.90;;;;;;4983509;28;21151;-73
2021/11/16 03:33:09;;;;;;;26.40;13.60;;;5.60;99.90;;;;;;4985182;28;20171;-73
2021/11/16 03:35:35;;;;;;;22.83;12.63;;;5.60;99.90;;;;;;4982084;28;20468;-73
2021/11/16 03:38:03;;;;;;;26.87;14.13;;;5.60;99.90;;;;;;4983752;28;20430;-73
2021/11/16 03:40:31;;;;;;;23.57;13.53;;;5.60;99.90;;;;;;4983445;28;20446;-73
2021/11/16 03:42:57;;;;;;;24.73;15.03;;;5.60;99.90;;;;;;4984289;28;20479;-73
2021/11/16 03:45:26;;;;;;;23.67;15.43;;;5.60;99.90;;;;;;4982479;28;20447;-73
2021/11/16 03:47:52;;;;;;;24.27;14.40;;;5.60;99.90;;;;;;4983234;28;20648;-73
2021/11/16 03:50:21;;;;;;;28.70;16.47;;;5.60;99.90;;;;;;4982757;28;20434;-73
2021/11/16 03:52:53;;;;;;;23.97;13.87;;;5.60;99.90;;;;;;4982350;28;20450;-73
2021/11/16 03:55:20;;;;;;;25.20;15.60;;;5.50;99.90;;;;;;4999628;28;20466;-73
2021/11/16 03:57:46;;;;;;;24.40;14.83;;;5.50;99.90;;;;;;4983731;28;20438;-73
2021/11/16 04:00:16;;;;;;;24.90;15.13;;;5.50;99.90;;;;;;4998715;28;20507;-73
2021/11/16 04:02:42;;;;;;;25.13;15.53;;;5.60;99.90;;;;;;4984070;28;20430;-73
2021/11/16 04:05:10;;;;;;;25.17;14.03;;;5.60;99.90;;;;;;4982634;28;20439;-73
2021/11/16 04:07:36;;;;;;;26.00;14.50;;;5.60;99.90;;;;;;4983538;28;20644;-73
2021/11/16 04:10:08;;;;;;;24.30;16.10;;;5.70;99.90;;;;;;4981844;28;20442;-73
2021/11/16 04:12:33;;;;;;;26.93;14.30;;;5.60;99.90;;;;;;4982248;28;20436;-73
2021/11/16 04:15:00;;;;;;;26.90;15.17;;;5.50;99.90;;;;;;4981622;28;20472;-73
2021/11/16 04:17:26;;;;;;;28.33;13.83;;;5.50;99.90;;;;;;4982724;28;20190;-73
2021/11/16 04:19:52;;;;;;;25.20;14.70;;;5.50;99.90;;;;;;4981440;28;20426;-73
2021/11/16 04:22:17;;;;;;;27.67;15.10;;;5.60;99.90;;;;;;4984465;28;20193;-73
2021/11/16 04:24:43;;;;;;;30.27;16.43;;;5.60;99.90;;;;;;4981454;28;20529;-73
2021/11/16 04:27:09;;;;;;;24.80;15.00;;;5.60;99.90;;;;;;4983738;28;20211;-73
2021/11/16 04:29:34;;;;;;;24.23;14.60;;;5.60;99.90;;;;;;4982822;28;20238;-73
2021/11/16 04:32:00;;;;;;;20.20;13.57;;;5.60;99.90;;;;;;4983662;28;20519;-73
2021/11/16 04:34:26;;;;;;;27.00;16.83;;;5.60;99.90;;;;;;4997778;28;20649;-73
2021/11/16 04:36:52;;;;;;;28.30;15.97;;;5.60;99.90;;;;;;4984600;28;20283;-73
2021/11/16 04:39:18;;;;;;;27.17;15.80;;;5.50;99.90;;;;;;4984068;28;20181;-73
2021/11/16 04:41:44;;;;;;;25.73;15.13;;;5.60;99.90;;;;;;4987465;28;20766;-73
2021/11/16 04:44:11;;;;;;;26.20;14.13;;;5.50;99.90;;;;;;4986164;28;20189;-73
2021/11/16 04:46:37;;;;;;;30.53;16.10;;;5.50;99.90;;;;;;4984986;28;20442;-73
2021/11/16 04:49:14;;;;;;;23.17;14.67;;;5.50;99.90;;;;;;4985724;28;20816;-73
2021/11/16 04:54:42;;;;;;;25.00;14.60;;;5.60;99.90;;;;;;4986853;28;20455;-73
2021/11/16 05:05:15;;;;;;;25.37;15.80;;;5.40;99.90;;;;;;4986171;28;20435;-69
2021/11/16 05:07:55;;;;;;;33.27;16.87;;;5.50;99.90;;;;;;4986587;28;20934;-69
2021/11/16 05:10:22;;;;;;;24.37;15.40;;;5.40;99.90;;;;;;4984829;28;20535;-70
2021/11/16 05:12:47;;;;;;;27.40;14.20;;;5.40;99.90;;;;;;4985377;28;20899;-70
2021/11/16 05:15:16;;;;;;;25.27;14.10;;;5.50;99.90;;;;;;5001476;28;20504;-70
2021/11/16 05:17:49;;;;;;;24.53;15.10;;;5.60;99.90;;;;;;4989315;28;20621;-69
2021/11/16 05:20:17;;;;;;;26.77;15.63;;;5.60;99.90;;;;;;4985393;28;20430;-69
2021/11/16 05:22:44;;;;;;;26.47;15.73;;;5.60;99.90;;;;;;4987731;28;20925;-70
2021/11/16 05:25:10;;;;;;;23.57;14.60;;;5.60;99.90;;;;;;4985540;28;21359;-70
2021/11/16 05:27:37;;;;;;;27.90;15.97;;;5.60;99.90;;;;;;4984240;28;20529;-70
2021/11/16 05:30:09;;;;;;;31.33;15.10;;;5.60;99.90;;;;;;4982948;28;20783;-70
2021/11/16 05:32:36;;;;;;;29.47;16.67;;;5.50;99.90;;;;;;4983095;28;20431;-69
2021/11/16 05:35:04;;;;;;;28.30;15.33;;;5.50;99.90;;;;;;4983064;28;21817;-70
2021/11/16 05:37:29;;;;;;;26.60;15.77;;;5.50;99.90;;;;;;4985704;28;20439;-70
2021/11/16 05:39:55;;;;;;;27.50;17.23;;;5.50;99.90;;;;;;4985577;28;20907;-70
2021/11/16 05:42:23;;;;;;;30.60;15.73;;;5.50;99.90;;;;;;4985988;28;20267;-70
2021/11/16 05:44:50;;;;;;;30.03;16.60;;;5.40;99.90;;;;;;4986015;28;20180;-70
2021/11/16 05:47:15;;;;;;;31.30;17.60;;;5.50;99.90;;;;;;4987156;28;20431;-70
2021/11/16 05:49:41;;;;;;;26.97;17.23;;;5.40;99.90;;;;;;4982336;28;20447;-69
2021/11/16 05:52:07;;;;;;;31.13;17.60;;;5.50;99.90;;;;;;4985152;28;20186;-71
2021/11/16 05:54:34;;;;;;;27.07;16.00;;;5.50;99.90;;;;;;5000737;28;20186;-70
2021/11/16 05:57:06;;;;;;;31.33;17.30;;;5.50;99.90;;;;;;4983826;28;20444;-70
2021/11/16 05:59:36;;;;;;;30.67;17.73;;;5.50;99.90;;;;;;4983927;28;20460;-70
2021/11/16 06:02:09;;;;;;;31.67;16.77;;;5.50;99.90;;;;;;4984617;28;20430;-70
2021/11/16 06:04:35;;;;;;;28.20;16.70;;;5.50;99.90;;;;;;4984331;28;20895;-70
2021/11/16 06:07:03;;;;;;;31.53;19.13;;;5.50;99.90;;;;;;4983059;28;20442;-70
2021/11/16 06:09:31;;;;;;;28.93;17.80;;;5.50;99.90;;;;;;4984196;28;20466;-70
2021/11/16 06:11:59;;;;;;;27.87;16.20;;;5.50;99.90;;;;;;4982365;28;20445;-70
2021/11/16 06:14:24;;;;;;;33.40;19.07;;;5.40;99.90;;;;;;4984983;28;20493;-70
2021/11/16 06:16:50;;;;;;;32.20;16.83;;;5.40;99.90;;;;;;4981942;28;20454;-70
2021/11/16 06:19:19;;;;;;;32.03;16.80;;;5.40;99.90;;;;;;4989636;28;20911;-73
2021/11/16 06:21:46;;;;;;;31.60;17.23;;;5.50;99.90;;;;;;4988353;28;20238;-73
2021/11/16 06:24:12;;;;;;;30.60;17.77;;;5.40;99.90;;;;;;4987641;28;20441;-73
2021/11/16 06:26:38;;;;;;;29.57;17.30;;;5.40;99.90;;;;;;4987355;28;20442;-73
2021/11/16 06:29:06;;;;;;;32.13;18.10;;;5.40;99.90;;;;;;4985773;28;21309;-73
2021/11/16 06:31:33;;;;;;;26.93;17.43;;;5.30;99.90;;;;;;4987426;28;20487;-73
2021/11/16 06:33:59;;;;;;;36.80;17.83;;;5.30;99.90;;;;;;4987216;28;20430;-73
2021/11/16 06:36:33;;;;;;;28.87;16.63;;;5.30;99.90;;;;;;4986703;28;20463;-73
2021/11/16 06:39:01;;;;;;;30.93;17.60;;;5.40;99.90;;;;;;4986797;28;20756;-73
2021/11/16 06:41:27;;;;;;;33.87;18.17;;;5.30;99.90;;;;;;4989773;28;20434;-74
2021/11/16 06:43:53;;;;;;;34.70;17.60;;;5.30;99.90;;;;;;4986349;28;21007;-74
2021/11/16 06:46:19;;;;;;;32.87;18.30;;;5.40;99.90;;;;;;4987997;28;20210;-73
2021/11/16 06:48:44;;;;;;;29.47;17.50;;;5.40;99.90;;;;;;4984046;28;20213;-73
2021/11/16 06:51:10;;;;;;;32.50;17.63;;;5.40;99.90;;;;;;4985138;28;20230;-73
2021/11/16 06:53:37;;;;;;;32.77;17.63;;;5.30;99.90;;;;;;4986057;28;20474;-73
2021/11/16 06:56:05;;;;;;;34.00;19.17;;;5.40;99.90;;;;;;4985901;28;20889;-73
2021/11/16 06:58:34;;;;;;;33.53;18.60;;;5.30;99.90;;;;;;4984657;28;20439;-73
2021/11/16 07:01:01;;;;;;;34.43;17.60;;;5.40;99.90;;;;;;4985006;28;20481;-70
2021/11/16 07:03:27;;;;;;;28.77;17.13;;;5.30;99.90;;;;;;4979888;28;20534;-70
2021/11/16 07:05:56;;;;;;;25.87;16.57;;;5.40;99.90;;;;;;4984118;28;20509;-71
2021/11/16 07:08:35;;;;;;;32.23;17.73;;;5.40;99.90;;;;;;4981868;28;20204;-70
2021/11/16 07:11:21;;;;;;;30.90;16.70;;;5.40;99.90;;;;;;4982090;28;20528;-70
2021/11/16 07:13:58;;;;;;;30.47;18.80;;;5.30;99.90;;;;;;4983619;28;20502;-71
2021/11/16 07:16:26;;;;;;;39.83;19.87;;;5.40;99.90;;;;;;4982850;28;20552;-70
2021/11/16 07:18:56;;;;;;;29.27;17.63;;;5.40;99.90;;;;;;4983990;28;20557;-70
2021/11/16 07:21:24;;;;;;;31.10;17.03;;;5.40;99.90;;;;;;4982969;28;20961;-70
2021/11/16 07:24:05;;;;;;;24.97;15.80;;;5.40;99.90;;;;;;4983751;28;20426;-70
2021/11/16 07:26:31;;;;;;;31.40;19.20;;;5.50;99.90;;;;;;4983076;28;20708;-71
2021/11/16 07:28:57;;;;;;;35.23;17.97;;;5.50;99.90;;;;;;4983580;28;20913;-71
2021/11/16 07:31:26;;;;;;;34.27;20.37;;;5.50;99.90;;;;;;4980069;28;20450;-70
2021/11/16 07:33:52;;;;;;;28.93;16.73;;;5.50;99.90;;;;;;4982006;28;20428;-70
2021/11/16 07:36:18;;;;;;;31.70;17.37;;;5.50;99.90;;;;;;4982766;28;20471;-70
2021/11/16 07:38:51;;;;;;;33.17;17.90;;;5.50;99.90;;;;;;4983013;28;20904;-70
2021/11/16 07:41:23;;;;;;;32.93;16.47;;;5.50;99.90;;;;;;4981075;28;20911;-70
2021/11/16 07:43:50;;;;;;;30.90;17.60;;;5.50;99.90;;;;;;4980119;28;20430;-70
2021/11/16 07:46:16;;;;;;;30.73;17.00;;;5.50;99.90;;;;;;4983673;28;20619;-70
2021/11/16 07:48:41;;;;;;;35.33;19.93;;;5.50;99.90;;;;;;4982453;28;20518;-70
2021/11/16 07:51:11;;;;;;;31.50;18.07;;;5.60;99.90;;;;;;4982106;28;20176;-70
2021/11/16 07:53:39;;;;;;;33.43;17.70;;;5.60;99.90;;;;;;4982792;28;20179;-71
2021/11/16 07:56:15;;;;;;;31.30;19.00;;;5.60;99.90;;;;;;4984495;28;20459;-70
2021/11/16 07:58:54;;;;;;;29.80;18.23;;;5.60;99.90;;;;;;4978787;28;20435;-69
2021/11/16 08:01:49;;;;;;;33.77;19.27;;;5.60;99.90;;;;;;4981333;28;20426;-70
2021/11/16 08:04:42;;;;;;;34.53;17.37;;;5.60;99.90;;;;;;4983111;28;20422;-69
2021/11/16 08:09:52;;;;;;;34.80;21.30;;;5.50;99.90;;;;;;4981126;28;20419;-69
2021/11/16 08:12:26;;;;;;;32.53;18.43;;;5.50;99.90;;;;;;4982007;28;20488;-70
2021/11/16 08:15:11;;;;;;;34.70;19.33;;;5.60;99.90;;;;;;4983203;28;20530;-70
2021/11/16 08:17:38;;;;;;;35.77;19.03;;;5.60;99.90;;;;;;4980474;28;20500;-70
2021/11/16 08:20:11;;;;;;;32.03;18.27;;;5.60;99.90;;;;;;4982587;28;20476;-70
2021/11/16 08:22:36;;;;;;;34.03;19.23;;;5.60;99.90;;;;;;4982655;28;20391;-70
2021/11/16 08:25:04;;;;;;;36.80;20.80;;;5.60;99.90;;;;;;4982759;28;20496;-70
2021/11/16 08:27:34;;;;;;;32.70;19.13;;;5.60;99.90;;;;;;4983260;28;20629;-70
2021/11/16 08:30:08;;;;;;;32.70;19.63;;;5.60;99.90;;;;;;4983601;28;20458;-70
2021/11/16 08:32:37;;;;;;;32.07;19.17;;;5.60;99.90;;;;;;4982979;28;20464;-69
2021/11/16 08:35:08;;;;;;;34.27;18.43;;;5.60;99.90;;;;;;4983751;28;20494;-70
2021/11/16 08:37:38;;;;;;;39.47;20.07;;;5.60;99.90;;;;;;4983714;28;20422;-70
2021/11/16 08:40:16;;;;;;;32.43;17.70;;;5.50;99.90;;;;;;4982055;28;20497;-69
2021/11/16 08:42:46;;;;;;;37.47;20.30;;;5.50;99.90;;;;;;4981695;28;20426;-70
2021/11/16 08:45:19;;;;;;;37.43;20.03;;;5.50;99.90;;;;;;4982341;28;20429;-73
2021/11/16 08:47:47;;;;;;;42.57;19.30;;;5.50;99.90;;;;;;4985585;28;20412;-73
2021/11/16 08:50:28;;;;;;;39.10;20.00;;;5.50;99.90;;;;;;4984742;28;20497;-73
2021/11/16 08:53:09;;;;;;;40.47;20.10;;;5.50;99.90;;;;;;4987238;28;20418;-73
2021/11/16 08:55:37;;;;;;;42.10;21.00;;;5.50;99.90;;;;;;4988043;28;20485;-73
2021/11/16 08:58:07;;;;;;;33.70;18.70;;;5.50;99.90;;;;;;4988538;28;20432;-73
2021/11/16 09:00:54;;;;;;;33.27;18.50;;;5.50;99.90;;;;;;4983409;28;20780;-73
2021/11/16 09:03:29;;;;;;;39.87;19.83;;;5.50;99.90;;;;;;4987075;28;20932;-73
2021/11/16 09:05:56;;;;;;;38.30;20.20;;;5.60;99.90;;;;;;4990467;28;20426;-73
2021/11/16 09:08:26;;;;;;;43.70;21.17;;;5.60;99.90;;;;;;4987550;28;20422;-73
2021/11/16 09:10:57;;;;;;;32.17;18.73;;;5.60;99.90;;;;;;4983623;28;20963;-73
2021/11/16 09:13:25;;;;;;;42.00;22.07;;;5.60;99.90;;;;;;4985365;28;20435;-74
2021/11/16 09:15:57;;;;;;;41.10;20.07;;;5.60;99.90;;;;;;4985060;28;20530;-73
2021/11/16 09:18:28;;;;;;;42.77;20.07;;;5.60;99.90;;;;;;4986274;28;20426;-73
2021/11/16 09:20:54;;;;;;;35.13;20.70;;;5.60;99.90;;;;;;4985179;28;20442;-74
2021/11/16 09:23:30;;;;;;;29.43;18.50;;;5.60;99.90;;;;;;4984664;28;20430;-73
2021/11/16 09:28:58;;;;;;;33.10;19.73;;;5.60;99.90;;;;;;4988735;28;20431;-73
2021/11/16 09:31:44;;;;;;;34.10;18.47;;;5.60;99.90;;;;;;4985848;28;20437;-73
2021/11/16 09:34:12;;;;;;;39.80;20.80;;;5.70;99.90;;;;;;4988706;28;20505;-73
2021/11/16 09:36:39;;;;;;;39.10;21.53;;;5.70;99.90;;;;;;4986912;28;20975;-73
2021/11/16 09:39:18;;;;;;;35.43;19.40;;;5.70;99.90;;;;;;4987276;28;20521;-73
2021/11/16 09:41:50;;;;;;;35.70;19.63;;;5.70;99.90;;;;;;5002521;28;20426;-74
2021/11/16 09:44:39;;;;;;;41.30;20.67;;;5.70;99.90;;;;;;4989915;28;20454;-74
2021/11/16 09:47:16;;;;;;;37.93;20.23;;;5.70;99.90;;;;;;4987962;28;20434;-75
2021/11/16 09:49:55;;;;;;;40.90;20.90;;;5.70;99.90;;;;;;5001929;28;20466;-72
2021/11/16 09:52:30;;;;;;;48.80;22.83;;;5.70;99.90;;;;;;4988484;28;20439;-73
2021/11/16 09:54:56;;;;;;;37.13;20.73;;;5.60;99.90;;;;;;4992436;28;20414;-74
2021/11/16 09:57:32;;;;;;;37.17;20.30;;;5.60;99.90;;;;;;4992220;28;20434;-74
2021/11/16 10:00:08;;;;;;;43.40;20.97;;;5.60;99.90;;;;;;4987386;28;20234;-76
2021/11/16 10:02:37;;;;;;;42.57;22.50;;;5.70;99.90;;;;;;4989866;28;20455;-73
2021/11/16 10:05:16;;;;;;;36.70;20.53;;;5.70;99.90;;;;;;4990510;28;20449;-73
2021/11/16 10:07:42;;;;;;;39.63;20.90;;;5.70;99.90;;;;;;4991158;28;20435;-74
2021/11/16 10:10:08;;;;;;;38.73;20.40;;;5.70;99.90;;;;;;4991232;28;20439;-74
2021/11/16 10:13:08;;;;;;;37.63;19.80;;;5.80;99.90;;;;;;4993961;28;20442;-74
2021/11/16 10:15:38;;;;;;;40.57;20.23;;;5.70;99.90;;;;;;5012450;28;20495;-73
2021/11/16 10:18:04;;;;;;;34.50;19.30;;;5.70;99.90;;;;;;4990926;28;20422;-73
2021/11/16 10:20:37;;;;;;;35.20;19.50;;;5.80;99.90;;;;;;4990616;28;20470;-73
2021/11/16 10:23:08;;;;;;;37.67;20.43;;;5.80;99.90;;;;;;4989181;28;20945;-73
2021/11/16 10:25:36;;;;;;;42.10;21.97;;;5.70;99.90;;;;;;4989081;28;20426;-73
2021/11/16 10:28:15;;;;;;;44.40;21.93;;;5.70;99.90;;;;;;4990227;28;20469;-73
2021/11/16 10:30:43;;;;;;;41.73;21.10;;;5.80;99.90;;;;;;4989114;28;20441;-74
2021/11/16 10:33:14;;;;;;;40.47;23.07;;;5.80;99.90;;;;;;4992409;28;20461;-73
2021/11/16 10:35:48;;;;;;;42.33;21.07;;;5.80;99.90;;;;;;4993144;28;20462;-74
2021/11/16 10:38:16;;;;;;;34.37;19.80;;;5.80;99.90;;;;;;4993477;28;20426;-74
2021/11/16 10:40:43;;;;;;;44.10;21.63;;;5.80;99.90;;;;;;4995819;28;20434;-74
2021/11/16 10:43:09;;;;;;;38.10;21.30;;;5.80;99.90;;;;;;4994236;28;20462;-74
2021/11/16 10:45:43;;;;;;;37.23;20.60;;;5.70;99.90;;;;;;4987882;28;20896;-73
2021/11/16 10:48:10;;;;;;;35.73;20.00;;;5.70;99.90;;;;;;4985997;28;20438;-75
2021/11/16 10:50:39;;;;;;;39.53;20.10;;;5.70;99.90;;;;;;4987865;28;20442;-77
2021/11/16 10:53:18;;;;;;;37.77;20.53;;;5.70;99.90;;;;;;4982470;28;20450;-78
2021/11/16 10:55:49;;;;;;;30.63;17.67;;;5.70;99.90;;;;;;4985789;28;20465;-76
2021/11/16 10:58:20;;;;;;;43.50;21.30;;;5.80;99.90;;;;;;4984886;28;20430;-77
2021/11/16 11:01:00;;;;;;;35.73;18.53;;;5.80;99.90;;;;;;4991805;28;20477;-76
2021/11/16 11:03:28;;;;;;;44.43;20.00;;;5.80;99.90;;;;;;4990937;28;20422;-76
2021/11/16 11:05:57;;;;;;;38.70;20.00;;;5.80;99.90;;;;;;5007235;28;20570;-75
2021/11/16 11:08:58;;;;;;;29.87;17.97;;;5.80;99.90;;;;;;4990312;28;20407;-76
2021/11/16 11:11:34;;;;;;;33.50;17.03;;;5.90;99.90;;;;;;4987821;28;20446;-77
2021/11/16 11:14:06;;;;;;;31.13;18.23;;;5.90;99.90;;;;;;4984887;28;20460;-77
2021/11/16 11:16:38;;;;;;;39.80;18.10;;;5.90;99.90;;;;;;4986018;28;20488;-76
2021/11/16 11:19:06;;;;;;;31.40;16.00;;;5.90;99.90;;;;;;4991598;28;20413;-75
2021/11/16 11:21:38;;;;;;;35.93;17.60;;;5.90;99.90;;;;;;4990478;28;20442;-75
2021/11/16 11:24:11;;;;;;;34.30;17.00;;;5.90;99.90;;;;;;5006715;28;20454;-75
2021/11/16 11:26:45;;;;;;;29.80;16.17;;;5.90;99.90;;;;;;4992272;28;20423;-75
2021/11/16 11:29:23;;;;;;;29.00;15.47;;;5.90;99.90;;;;;;4992630;28;20469;-75
2021/11/16 11:31:55;;;;;;;34.20;18.13;;;5.90;99.90;;;;;;4992004;28;20445;-75
2021/11/16 11:34:40;;;;;;;35.87;17.30;;;5.90;99.90;;;;;;4986887;28;20473;-75
2021/11/16 11:37:13;;;;;;;30.70;17.70;;;5.90;99.90;;;;;;5005745;28;20474;-75
2021/11/16 11:39:40;;;;;;;36.87;18.47;;;5.80;99.90;;;;;;4990392;28;20723;-74
2021/11/16 11:42:12;;;;;;;34.87;16.97;;;5.80;99.90;;;;;;4992540;28;20493;-74
2021/11/16 11:44:42;;;;;;;30.40;15.43;;;5.80;99.90;;;;;;4993012;28;20433;-75
2021/11/16 11:47:08;;;;;;;28.57;15.53;;;5.80;99.90;;;;;;4988797;28;20438;-75
2021/11/16 11:49:33;;;;;;;29.97;16.07;;;5.80;99.90;;;;;;4989525;28;20505;-75
2021/11/16 11:52:03;;;;;;;32.80;17.47;;;5.80;99.90;;;;;;4987437;28;20430;-76
2021/11/16 11:54:29;;;;;;;33.43;16.97;;;5.80;99.90;;;;;;4984632;28;20204;-75
2021/11/16 11:56:55;;;;;;;31.77;16.80;;;5.80;99.90;;;;;;4985138;28;20458;-75
2021/11/16 11:59:25;;;;;;;32.87;17.10;;;5.80;99.90;;;;;;4984583;28;20195;-75
2021/11/16 12:01:51;;;;;;;31.87;16.43;;;5.80;99.90;;;;;;4985450;28;20848;-76
2021/11/16 12:04:18;;;;;;;33.87;16.13;;;5.80;99.90;;;;;;4987118;28;20438;-75
2021/11/16 12:06:53;;;;;;;29.87;16.20;;;5.80;99.90;;;;;;4986324;28;20443;-75
2021/11/16 12:09:21;;;;;;;30.57;15.27;;;5.80;99.90;;;;;;4982431;28;20529;-75
2021/11/16 12:11:46;;;;;;;34.63;17.30;;;5.80;99.90;;;;;;4985397;28;20431;-75
2021/11/16 12:14:21;;;;;;;27.10;15.87;;;5.90;99.90;;;;;;4984470;28;20534;-75
2021/11/16 12:17:00;;;;;;;36.67;17.37;;;5.90;99.90;;;;;;4984920;28;20202;-76
2021/11/16 12:19:42;;;;;;;34.20;16.10;;;5.90;99.90;;;;;;4984997;28;20483;-75
2021/11/16 12:22:25;;;;;;;35.20;18.07;;;5.90;99.90;;;;;;4984400;28;20423;-75
2021/11/16 12:25:18;;;;;;;42.67;16.50;;;5.90;99.90;;;;;;4985984;28;20425;-75
2021/11/16 12:27:45;;;;;;;34.57;17.93;;;5.90;99.90;;;;;;4984751;28;20444;-76
2021/11/16 12:30:11;;;;;;;35.50;18.10;;;5.90;99.90;;;;;;4983709;28;21261;-75
2021/11/16 12:32:50;;;;;;;31.63;15.90;;;5.90;99.90;;;;;;4978671;28;20448;-76
2021/11/16 12:35:20;;;;;;;33.03;15.50;;;5.90;99.90;;;;;;4982107;28;20810;-76
2021/11/16 12:37:48;;;;;;;25.53;13.97;;;5.90;99.90;;;;;;4984611;28;20425;-75
2021/11/16 12:40:19;;;;;;;30.33;17.10;;;5.90;99.90;;;;;;4997549;28;20433;-75
2021/11/16 12:43:24;;;;;;;32.87;17.07;;;5.90;99.90;;;;;;4980236;28;20438;-75
2021/11/16 12:45:59;;;;;;;33.07;16.80;;;5.90;99.90;;;;;;4983970;28;20430;-75
2021/11/16 12:48:48;;;;;;;27.90;14.60;;;5.90;99.90;;;;;;4982763;28;20434;-75
2021/11/16 12:51:19;;;;;;;25.63;15.57;;;5.90;99.90;;;;;;4980076;28;20436;-75
2021/11/16 12:53:54;;;;;;;31.33;15.60;;;5.90;99.90;;;;;;4983023;28;20568;-75
2021/11/16 12:56:21;;;;;;;34.83;15.10;;;5.90;99.90;;;;;;4981270;28;20553;-75
2021/11/16 12:58:53;;;;;;;30.13;15.23;;;5.90;99.90;;;;;;4982042;28;20473;-76
2021/11/16 13:01:48;;;;;;;28.93;15.40;;;5.90;99.90;;;;;;4983879;28;20454;-75
2021/11/16 13:04:16;;;;;;;31.87;14.10;;;5.90;99.90;;;;;;4983861;28;20430;-76
2021/11/16 13:07:03;;;;;;;29.70;15.53;;;5.90;99.90;;;;;;4992723;28;20505;-76
2021/11/16 13:09:51;;;;;;;28.47;14.30;;;5.90;99.90;;;;;;4986238;28;20430;-76